sensor_id;sensor_type;location;lat;lon;timestamp;temperature;humidity
23411;DHT22;11878;51.774;7.220;2024-01-06T00:01:37;6.60;99.90
23411;DHT22;11878;51.774;7.220;2024-01-06T00:04:39;6.60;99.90
23411;DHT22;11878;51.774;7.220;2024-01-06T00:07:40;6.60;99.90
23411;DHT22;11878;51.774;7.220;2024-01-06T00:10:42;6.60;99.90
23411;DHT22;11878;51.774;7.220;2024-01-06T00:13:44;6.60;99.90
23411;DHT22;11878;51.774;7.220;2024-01-06T00:16:46;6.70;99.90
23411;DHT22;11878;51.774;7.220;2024-01-06T00:19:47;6.60;99.90
23411;DHT22;11878;51.774;7.220;2024-01-06T00:22:53;6.70;99.90
23411;DHT22;11878;51.774;7.220;2024-01-06T00:25:54;6.60;99.90
23411;DHT22;11878;51.774;7.220;2024-01-06T00:28:56;6.70;99.90
23411;DHT22;11878;51.774;7.220;2024-01-06T00:31:58;6.70;99.90
23411;DHT22;11878;51.774;7.220;2024-01-06T00:35:00;6.60;99.90
23411;DHT22;11878;51.774;7.220;2024-01-06T00:38:02;6.70;99.90
23411;DHT22;11878;51.774;7.220;2024-01-06T00:41:04;6.60;99.90
23411;DHT22;11878;51.774;7.220;2024-01-06T00:44:06;6.70;99.90
23411;DHT22;11878;51.774;7.220;2024-01-06T00:47:07;6.70;99.90
23411;DHT22;11878;51.774;7.220;2024-01-06T00:50:09;6.70;99.90
23411;DHT22;11878;51.774;7.220;2024-01-06T00:53:12;6.70;99.90
23411;DHT22;11878;51.774;7.220;2024-01-06T00:56:14;6.60;99.90
23411;DHT22;11878;51.774;7.220;2024-01-06T00:59:16;6.70;99.90
23411;DHT22;11878;51.774;7.220;2024-01-06T01:02:17;6.60;99.90
23411;DHT22;11878;51.774;7.220;2024-01-06T01:05:19;6.70;99.90
23411;DHT22;11878;51.774;7.220;2024-01-06T01:08:21;6.70;99.90
23411;DHT22;11878;51.774;7.220;2024-01-06T01:11:23;6.70;99.90
23411;DHT22;11878;51.774;7.220;2024-01-06T01:14:24;6.40;99.90
23411;DHT22;11878;51.774;7.220;2024-01-06T01:17:27;6.50;99.90
23411;DHT22;11878;51.774;7.220;2024-01-06T01:20:28;6.50;99.90
23411;DHT22;11878;51.774;7.220;2024-01-06T01:23:30;6.50;99.90
23411;DHT22;11878;51.774;7.220;2024-01-06T01:26:32;6.50;99.90
23411;DHT22;11878;51.774;7.220;2024-01-06T01:29:34;6.40;99.90
23411;DHT22;11878;51.774;7.220;2024-01-06T01:32:37;6.40;99.90
23411;DHT22;11878;51.774;7.220;2024-01-06T01:35:39;6.30;99.90
23411;DHT22;11878;51.774;7.220;2024-01-06T01:38:41;6.30;99.90
23411;DHT22;11878;51.774;7.220;2024-01-06T01:41:42;6.30;99.90
23411;DHT22;11878;51.774;7.220;2024-01-06T01:44:44;6.30;99.90
23411;DHT22;11878;51.774;7.220;2024-01-06T01:47:46;6.30;99.90
23411;DHT22;11878;51.774;7.220;2024-01-06T01:50:48;6.30;99.90
23411;DHT22;11878;51.774;7.220;2024-01-06T01:53:50;6.20;99.90
23411;DHT22;11878;51.774;7.220;2024-01-06T01:56:52;6.20;99.90
23411;DHT22;11878;51.774;7.220;2024-01-06T01:59:55;6.20;99.90
23411;DHT22;11878;51.774;7.220;2024-01-06T02:02:58;6.30;99.90
23411;DHT22;11878;51.774;7.220;2024-01-06T02:06:00;6.20;99.90
23411;DHT22;11878;51.774;7.220;2024-01-06T02:09:02;6.20;99.90
23411;DHT22;11878;51.774;7.220;2024-01-06T02:12:04;6.20;99.90
23411;DHT22;11878;51.774;7.220;2024-01-06T02:15:07;6.30;99.90
23411;DHT22;11878;51.774;7.220;2024-01-06T02:18:10;6.20;99.90
23411;DHT22;11878;51.774;7.220;2024-01-06T02:21:13;6.20;99.90
23411;DHT22;11878;51.774;7.220;2024-01-06T02:24:15;6.20;99.90
23411;DHT22;11878;51.774;7.220;2024-01-06T02:27:17;6.20;99.90
23411;DHT22;11878;51.774;7.220;2024-01-06T02:30:19;6.20;99.90
23411;DHT22;11878;51.774;7.220;2024-01-06T02:33:21;6.20;99.90
23411;DHT22;11878;51.774;7.220;2024-01-06T02:36:25;6.20;99.90
23411;DHT22;11878;51.774;7.220;2024-01-06T02:39:27;6.10;99.90
23411;DHT22;11878;51.774;7.220;2024-01-06T02:42:29;6.20;99.90
23411;DHT22;11878;51.774;7.220;2024-01-06T02:45:31;6.10;99.90
23411;DHT22;11878;51.774;7.220;2024-01-06T02:48:33;6.00;99.90
23411;DHT22;11878;51.774;7.220;2024-01-06T02:51:35;6.00;99.90
23411;DHT22;11878;51.774;7.220;2024-01-06T02:54:37;6.10;99.90
23411;DHT22;11878;51.774;7.220;2024-01-06T02:57:39;6.00;99.90
23411;DHT22;11878;51.774;7.220;2024-01-06T03:00:42;6.00;99.90
23411;DHT22;11878;51.774;7.220;2024-01-06T03:03:44;6.10;99.90
23411;DHT22;11878;51.774;7.220;2024-01-06T03:06:46;6.10;99.90
23411;DHT22;11878;51.774;7.220;2024-01-06T03:09:53;6.10;99.90
23411;DHT22;11878;51.774;7.220;2024-01-06T03:12:55;5.90;99.90
23411;DHT22;11878;51.774;7.220;2024-01-06T03:15:57;6.00;99.90
23411;DHT22;11878;51.774;7.220;2024-01-06T03:18:58;5.90;99.90
23411;DHT22;11878;51.774;7.220;2024-01-06T03:22:00;5.80;99.90
23411;DHT22;11878;51.774;7.220;2024-01-06T03:25:02;5.90;99.90
23411;DHT22;11878;51.774;7.220;2024-01-06T03:28:32;5.80;99.90
23411;DHT22;11878;51.774;7.220;2024-01-06T03:31:37;5.90;99.90
23411;DHT22;11878;51.774;7.220;2024-01-06T03:34:41;5.80;99.90
23411;DHT22;11878;51.774;7.220;2024-01-06T03:37:43;5.80;99.90
23411;DHT22;11878;51.774;7.220;2024-01-06T03:40:45;5.80;99.90
23411;DHT22;11878;51.774;7.220;2024-01-06T03:43:47;5.70;99.90
23411;DHT22;11878;51.774;7.220;2024-01-06T03:46:48;5.70;99.90
23411;DHT22;11878;51.774;7.220;2024-01-06T03:49:50;5.70;99.90
23411;DHT22;11878;51.774;7.220;2024-01-06T03:52:52;5.70;99.90
23411;DHT22;11878;51.774;7.220;2024-01-06T03:55:54;5.80;99.90
23411;DHT22;11878;51.774;7.220;2024-01-06T03:58:56;5.60;99.90
23411;DHT22;11878;51.774;7.220;2024-01-06T04:01:58;5.60;99.90
23411;DHT22;11878;51.774;7.220;2024-01-06T04:05:00;5.70;99.90
23411;DHT22;11878;51.774;7.220;2024-01-06T04:08:01;5.70;99.90
23411;DHT22;11878;51.774;7.220;2024-01-06T04:11:03;5.50;99.90
23411;DHT22;11878;51.774;7.220;2024-01-06T04:14:05;5.60;99.90
23411;DHT22;11878;51.774;7.220;2024-01-06T04:17:07;5.60;99.90
23411;DHT22;11878;51.774;7.220;2024-01-06T04:20:09;5.60;99.90
23411;DHT22;11878;51.774;7.220;2024-01-06T04:23:14;5.70;99.90
23411;DHT22;11878;51.774;7.220;2024-01-06T04:26:15;5.70;99.90
23411;DHT22;11878;51.774;7.220;2024-01-06T04:29:17;5.70;99.90
23411;DHT22;11878;51.774;7.220;2024-01-06T04:32:19;5.80;99.90
23411;DHT22;11878;51.774;7.220;2024-01-06T04:35:21;5.60;99.90
23411;DHT22;11878;51.774;7.220;2024-01-06T04:38:23;5.60;99.90
23411;DHT22;11878;51.774;7.220;2024-01-06T04:41:25;5.60;99.90
23411;DHT22;11878;51.774;7.220;2024-01-06T04:44:26;5.50;99.90
23411;DHT22;11878;51.774;7.220;2024-01-06T04:47:28;5.50;99.90
23411;DHT22;11878;51.774;7.220;2024-01-06T04:50:32;5.60;99.90
23411;DHT22;11878;51.774;7.220;2024-01-06T04:53:33;5.50;99.90
23411;DHT22;11878;51.774;7.220;2024-01-06T04:56:35;5.40;99.90
23411;DHT22;11878;51.774;7.220;2024-01-06T04:59:37;5.20;99.90
23411;DHT22;11878;51.774;7.220;2024-01-06T05:02:40;5.30;99.90
23411;DHT22;11878;51.774;7.220;2024-01-06T05:05:42;5.20;99.90
23411;DHT22;11878;51.774;7.220;2024-01-06T05:08:44;5.30;99.90
23411;DHT22;11878;51.774;7.220;2024-01-06T05:11:46;5.20;99.90
23411;DHT22;11878;51.774;7.220;2024-01-06T05:14:48;5.20;99.90
23411;DHT22;11878;51.774;7.220;2024-01-06T05:17:50;5.30;99.90
23411;DHT22;11878;51.774;7.220;2024-01-06T05:20:53;5.30;99.90
23411;DHT22;11878;51.774;7.220;2024-01-06T05:23:55;5.20;99.90
23411;DHT22;11878;51.774;7.220;2024-01-06T05:26:56;5.20;99.90
23411;DHT22;11878;51.774;7.220;2024-01-06T05:29:58;5.20;99.90
23411;DHT22;11878;51.774;7.220;2024-01-06T05:33:01;5.20;99.90
23411;DHT22;11878;51.774;7.220;2024-01-06T05:36:03;5.20;99.90
23411;DHT22;11878;51.774;7.220;2024-01-06T05:39:05;5.20;99.90
23411;DHT22;11878;51.774;7.220;2024-01-06T05:42:09;5.10;99.90
23411;DHT22;11878;51.774;7.220;2024-01-06T05:45:12;5.20;99.90
23411;DHT22;11878;51.774;7.220;2024-01-06T05:48:15;5.30;99.90
23411;DHT22;11878;51.774;7.220;2024-01-06T05:51:17;5.20;99.90
23411;DHT22;11878;51.774;7.220;2024-01-06T05:54:19;5.10;99.90
23411;DHT22;11878;51.774;7.220;2024-01-06T05:57:21;5.10;99.90
23411;DHT22;11878;51.774;7.220;2024-01-06T06:00:22;4.80;99.90
23411;DHT22;11878;51.774;7.220;2024-01-06T06:03:24;4.80;99.90
23411;DHT22;11878;51.774;7.220;2024-01-06T06:06:26;4.80;99.90
23411;DHT22;11878;51.774;7.220;2024-01-06T06:09:29;4.90;99.90
23411;DHT22;11878;51.774;7.220;2024-01-06T06:12:31;4.80;99.90
23411;DHT22;11878;51.774;7.220;2024-01-06T06:15:32;4.80;99.90
23411;DHT22;11878;51.774;7.220;2024-01-06T06:18:34;4.80;99.90
23411;DHT22;11878;51.774;7.220;2024-01-06T06:21:37;4.90;99.90
23411;DHT22;11878;51.774;7.220;2024-01-06T06:24:38;4.80;99.90
23411;DHT22;11878;51.774;7.220;2024-01-06T06:27:40;4.80;99.90
23411;DHT22;11878;51.774;7.220;2024-01-06T06:30:42;4.70;99.90
23411;DHT22;11878;51.774;7.220;2024-01-06T06:33:44;4.80;99.90
23411;DHT22;11878;51.774;7.220;2024-01-06T06:36:46;4.70;99.90
23411;DHT22;11878;51.774;7.220;2024-01-06T06:39:48;4.70;99.90
23411;DHT22;11878;51.774;7.220;2024-01-06T06:42:50;4.70;99.90
23411;DHT22;11878;51.774;7.220;2024-01-06T06:45:52;4.60;99.90
23411;DHT22;11878;51.774;7.220;2024-01-06T06:48:54;4.50;99.90
23411;DHT22;11878;51.774;7.220;2024-01-06T06:51:57;4.60;99.90
23411;DHT22;11878;51.774;7.220;2024-01-06T06:54:58;4.60;99.90
23411;DHT22;11878;51.774;7.220;2024-01-06T06:58:01;4.50;99.90
23411;DHT22;11878;51.774;7.220;2024-01-06T07:01:03;4.40;99.90
23411;DHT22;11878;51.774;7.220;2024-01-06T07:04:05;4.60;99.90
23411;DHT22;11878;51.774;7.220;2024-01-06T07:07:07;4.50;99.90
23411;DHT22;11878;51.774;7.220;2024-01-06T07:10:08;4.50;99.90
23411;DHT22;11878;51.774;7.220;2024-01-06T07:13:10;4.40;99.90
23411;DHT22;11878;51.774;7.220;2024-01-06T07:16:12;4.40;99.90
23411;DHT22;11878;51.774;7.220;2024-01-06T07:19:20;4.30;99.90
23411;DHT22;11878;51.774;7.220;2024-01-06T07:22:22;4.40;99.90
23411;DHT22;11878;51.774;7.220;2024-01-06T07:25:24;4.60;99.90
23411;DHT22;11878;51.774;7.220;2024-01-06T07:28:26;4.40;99.90
23411;DHT22;11878;51.774;7.220;2024-01-06T07:31:28;4.40;99.90
23411;DHT22;11878;51.774;7.220;2024-01-06T07:34:30;4.40;99.90
23411;DHT22;11878;51.774;7.220;2024-01-06T07:37:32;4.30;99.90
23411;DHT22;11878;51.774;7.220;2024-01-06T07:40:34;4.20;99.90
23411;DHT22;11878;51.774;7.220;2024-01-06T07:43:36;4.20;99.90
23411;DHT22;11878;51.774;7.220;2024-01-06T07:46:39;4.30;99.90
23411;DHT22;11878;51.774;7.220;2024-01-06T07:49:41;4.40;99.90
23411;DHT22;11878;51.774;7.220;2024-01-06T07:52:43;4.20;99.90
23411;DHT22;11878;51.774;7.220;2024-01-06T07:55:45;4.20;99.90
23411;DHT22;11878;51.774;7.220;2024-01-06T07:58:47;4.10;99.90
23411;DHT22;11878;51.774;7.220;2024-01-06T08:01:50;4.20;99.90
23411;DHT22;11878;51.774;7.220;2024-01-06T08:04:51;4.10;99.90
23411;DHT22;11878;51.774;7.220;2024-01-06T08:07:55;4.10;99.90
23411;DHT22;11878;51.774;7.220;2024-01-06T08:10:57;4.20;99.90
23411;DHT22;11878;51.774;7.220;2024-01-06T08:13:59;4.20;99.90
23411;DHT22;11878;51.774;7.220;2024-01-06T08:17:01;4.20;99.90
23411;DHT22;11878;51.774;7.220;2024-01-06T08:20:03;4.10;99.90
23411;DHT22;11878;51.774;7.220;2024-01-06T08:23:05;4.00;99.90
23411;DHT22;11878;51.774;7.220;2024-01-06T08:26:07;4.10;99.90
23411;DHT22;11878;51.774;7.220;2024-01-06T08:29:13;4.10;99.90
23411;DHT22;11878;51.774;7.220;2024-01-06T08:32:15;4.10;99.90
23411;DHT22;11878;51.774;7.220;2024-01-06T08:35:18;4.10;99.90
23411;DHT22;11878;51.774;7.220;2024-01-06T08:38:21;4.00;99.90
23411;DHT22;11878;51.774;7.220;2024-01-06T08:41:24;4.10;99.90
23411;DHT22;11878;51.774;7.220;2024-01-06T08:44:25;4.10;99.90
23411;DHT22;11878;51.774;7.220;2024-01-06T08:47:27;4.10;99.90
23411;DHT22;11878;51.774;7.220;2024-01-06T08:50:29;4.20;99.90
23411;DHT22;11878;51.774;7.220;2024-01-06T08:53:31;4.10;99.90
23411;DHT22;11878;51.774;7.220;2024-01-06T08:56:34;4.00;99.90
23411;DHT22;11878;51.774;7.220;2024-01-06T08:59:35;4.10;99.90
23411;DHT22;11878;51.774;7.220;2024-01-06T09:02:38;3.90;99.90
23411;DHT22;11878;51.774;7.220;2024-01-06T09:05:40;4.00;99.90
23411;DHT22;11878;51.774;7.220;2024-01-06T09:08:42;4.00;99.90
23411;DHT22;11878;51.774;7.220;2024-01-06T09:11:44;4.00;99.90
23411;DHT22;11878;51.774;7.220;2024-01-06T09:14:46;4.10;99.90
23411;DHT22;11878;51.774;7.220;2024-01-06T09:17:47;4.00;99.90
23411;DHT22;11878;51.774;7.220;2024-01-06T09:20:50;4.10;99.90
23411;DHT22;11878;51.774;7.220;2024-01-06T09:23:51;4.00;99.90
23411;DHT22;11878;51.774;7.220;2024-01-06T09:26:55;4.00;99.90
23411;DHT22;11878;51.774;7.220;2024-01-06T09:29:56;4.00;99.90
23411;DHT22;11878;51.774;7.220;2024-01-06T09:32:58;3.90;99.90
23411;DHT22;11878;51.774;7.220;2024-01-06T09:36:01;3.90;99.90
23411;DHT22;11878;51.774;7.220;2024-01-06T09:39:02;3.90;99.90
23411;DHT22;11878;51.774;7.220;2024-01-06T09:42:05;6.30;99.90
23411;DHT22;11878;51.774;7.220;2024-01-06T09:45:08;4.00;99.90
23411;DHT22;11878;51.774;7.220;2024-01-06T09:48:18;3.90;99.90
23411;DHT22;11878;51.774;7.220;2024-01-06T09:51:21;3.90;99.90
23411;DHT22;11878;51.774;7.220;2024-01-06T09:54:23;3.90;99.90
23411;DHT22;11878;51.774;7.220;2024-01-06T09:57:27;4.00;99.90
23411;DHT22;11878;51.774;7.220;2024-01-06T10:00:28;4.00;99.90
23411;DHT22;11878;51.774;7.220;2024-01-06T10:03:30;4.00;99.90
23411;DHT22;11878;51.774;7.220;2024-01-06T10:06:32;3.90;99.90
23411;DHT22;11878;51.774;7.220;2024-01-06T10:09:34;3.90;99.90
23411;DHT22;11878;51.774;7.220;2024-01-06T10:12:40;3.80;99.90
23411;DHT22;11878;51.774;7.220;2024-01-06T10:15:42;3.90;99.90
23411;DHT22;11878;51.774;7.220;2024-01-06T10:18:45;3.80;99.90
23411;DHT22;11878;51.774;7.220;2024-01-06T10:21:53;3.80;99.90
23411;DHT22;11878;51.774;7.220;2024-01-06T10:24:55;3.80;99.90
23411;DHT22;11878;51.774;7.220;2024-01-06T10:27:57;3.80;99.90
23411;DHT22;11878;51.774;7.220;2024-01-06T10:31:02;3.80;99.90
23411;DHT22;11878;51.774;7.220;2024-01-06T10:34:04;3.90;99.90
23411;DHT22;11878;51.774;7.220;2024-01-06T10:37:07;3.90;99.90
23411;DHT22;11878;51.774;7.220;2024-01-06T10:40:17;3.90;99.90
23411;DHT22;11878;51.774;7.220;2024-01-06T10:43:21;3.90;99.90
23411;DHT22;11878;51.774;7.220;2024-01-06T10:46:23;3.90;99.90
23411;DHT22;11878;51.774;7.220;2024-01-06T10:49:27;3.80;99.90
23411;DHT22;11878;51.774;7.220;2024-01-06T10:52:30;3.90;99.90
23411;DHT22;11878;51.774;7.220;2024-01-06T10:55:33;3.90;99.90
23411;DHT22;11878;51.774;7.220;2024-01-06T10:58:36;3.90;99.90
23411;DHT22;11878;51.774;7.220;2024-01-06T11:01:44;3.90;99.90
23411;DHT22;11878;51.774;7.220;2024-01-06T11:04:48;3.90;99.90
23411;DHT22;11878;51.774;7.220;2024-01-06T11:07:50;3.80;99.90
23411;DHT22;11878;51.774;7.220;2024-01-06T11:10:56;3.80;99.90
23411;DHT22;11878;51.774;7.220;2024-01-06T11:17:57;3.70;99.90
23411;DHT22;11878;51.774;7.220;2024-01-06T11:21:17;3.70;99.90
23411;DHT22;11878;51.774;7.220;2024-01-06T11:24:36;3.80;99.90
23411;DHT22;11878;51.774;7.220;2024-01-06T11:27:38;3.80;99.90
23411;DHT22;11878;51.774;7.220;2024-01-06T11:30:41;3.80;99.90
23411;DHT22;11878;51.774;7.220;2024-01-06T11:33:43;3.80;99.90
23411;DHT22;11878;51.774;7.220;2024-01-06T11:36:48;3.70;99.90
23411;DHT22;11878;51.774;7.220;2024-01-06T11:39:50;3.70;99.90
23411;DHT22;11878;51.774;7.220;2024-01-06T11:43:08;3.70;99.90
23411;DHT22;11878;51.774;7.220;2024-01-06T11:46:11;3.70;99.90
23411;DHT22;11878;51.774;7.220;2024-01-06T11:49:15;3.40;99.90
23411;DHT22;11878;51.774;7.220;2024-01-06T11:52:18;3.60;99.90
23411;DHT22;11878;51.774;7.220;2024-01-06T11:55:20;3.60;99.90
23411;DHT22;11878;51.774;7.220;2024-01-06T11:58:22;3.70;99.90
23411;DHT22;11878;51.774;7.220;2024-01-06T12:01:24;3.70;99.90
23411;DHT22;11878;51.774;7.220;2024-01-06T12:04:27;3.70;99.90
23411;DHT22;11878;51.774;7.220;2024-01-06T12:07:30;3.70;99.90
23411;DHT22;11878;51.774;7.220;2024-01-06T12:10:36;3.50;99.90
23411;DHT22;11878;51.774;7.220;2024-01-06T12:13:39;3.50;99.90
23411;DHT22;11878;51.774;7.220;2024-01-06T12:16:41;3.70;99.90
23411;DHT22;11878;51.774;7.220;2024-01-06T12:19:43;3.70;99.90
23411;DHT22;11878;51.774;7.220;2024-01-06T12:22:45;3.70;99.90
23411;DHT22;11878;51.774;7.220;2024-01-06T12:25:47;3.80;99.90
23411;DHT22;11878;51.774;7.220;2024-01-06T12:28:51;3.60;99.90
23411;DHT22;11878;51.774;7.220;2024-01-06T12:31:53;3.70;99.90
23411;DHT22;11878;51.774;7.220;2024-01-06T12:34:56;3.70;99.90
23411;DHT22;11878;51.774;7.220;2024-01-06T12:37:57;3.70;99.90
23411;DHT22;11878;51.774;7.220;2024-01-06T12:41:00;3.70;99.90
23411;DHT22;11878;51.774;7.220;2024-01-06T12:44:02;3.70;99.90
23411;DHT22;11878;51.774;7.220;2024-01-06T12:47:04;6.30;99.90
23411;DHT22;11878;51.774;7.220;2024-01-06T12:50:07;3.50;99.90
23411;DHT22;11878;51.774;7.220;2024-01-06T12:53:10;3.50;99.90
23411;DHT22;11878;51.774;7.220;2024-01-06T12:56:13;3.50;99.90
23411;DHT22;11878;51.774;7.220;2024-01-06T12:59:16;3.50;99.90
23411;DHT22;11878;51.774;7.220;2024-01-06T13:02:17;3.40;99.90
23411;DHT22;11878;51.774;7.220;2024-01-06T13:05:19;3.50;99.90
23411;DHT22;11878;51.774;7.220;2024-01-06T13:08:21;3.50;99.90
23411;DHT22;11878;51.774;7.220;2024-01-06T13:11:23;3.60;99.90
23411;DHT22;11878;51.774;7.220;2024-01-06T13:14:28;3.60;99.90
23411;DHT22;11878;51.774;7.220;2024-01-06T13:17:31;3.70;99.90
23411;DHT22;11878;51.774;7.220;2024-01-06T13:20:34;3.70;99.90
23411;DHT22;11878;51.774;7.220;2024-01-06T13:23:36;3.50;99.90
23411;DHT22;11878;51.774;7.220;2024-01-06T13:26:37;3.60;99.90
23411;DHT22;11878;51.774;7.220;2024-01-06T13:29:39;3.70;99.90
23411;DHT22;11878;51.774;7.220;2024-01-06T13:32:42;3.70;99.90
23411;DHT22;11878;51.774;7.220;2024-01-06T13:35:44;3.70;99.90
23411;DHT22;11878;51.774;7.220;2024-01-06T13:38:46;3.50;99.90
23411;DHT22;11878;51.774;7.220;2024-01-06T13:41:50;3.60;99.90
23411;DHT22;11878;51.774;7.220;2024-01-06T13:44:52;3.70;99.90
23411;DHT22;11878;51.774;7.220;2024-01-06T13:47:54;3.50;99.90
23411;DHT22;11878;51.774;7.220;2024-01-06T13:50:57;3.50;99.90
23411;DHT22;11878;51.774;7.220;2024-01-06T13:54:00;3.60;99.90
23411;DHT22;11878;51.774;7.220;2024-01-06T13:57:01;3.70;99.90
23411;DHT22;11878;51.774;7.220;2024-01-06T14:00:04;3.50;99.90
23411;DHT22;11878;51.774;7.220;2024-01-06T14:03:12;3.60;99.90
23411;DHT22;11878;51.774;7.220;2024-01-06T14:06:14;3.50;99.90
23411;DHT22;11878;51.774;7.220;2024-01-06T14:09:16;3.50;99.90
23411;DHT22;11878;51.774;7.220;2024-01-06T14:12:18;3.50;99.90
23411;DHT22;11878;51.774;7.220;2024-01-06T14:15:20;3.60;99.90
23411;DHT22;11878;51.774;7.220;2024-01-06T14:18:22;3.60;99.90
23411;DHT22;11878;51.774;7.220;2024-01-06T14:21:24;2.00;99.90
23411;DHT22;11878;51.774;7.220;2024-01-06T14:24:26;3.60;99.90
23411;DHT22;11878;51.774;7.220;2024-01-06T14:27:28;3.50;99.90
23411;DHT22;11878;51.774;7.220;2024-01-06T14:30:31;3.40;99.90
23411;DHT22;11878;51.774;7.220;2024-01-06T14:33:33;3.50;99.90
23411;DHT22;11878;51.774;7.220;2024-01-06T14:36:37;1.60;99.90
23411;DHT22;11878;51.774;7.220;2024-01-06T14:39:39;3.30;99.90
23411;DHT22;11878;51.774;7.220;2024-01-06T14:42:42;3.40;99.90
23411;DHT22;11878;51.774;7.220;2024-01-06T14:45:46;3.30;99.90
23411;DHT22;11878;51.774;7.220;2024-01-06T14:48:49;3.50;99.90
23411;DHT22;11878;51.774;7.220;2024-01-06T14:51:51;3.40;99.90
23411;DHT22;11878;51.774;7.220;2024-01-06T14:54:54;3.40;99.90
23411;DHT22;11878;51.774;7.220;2024-01-06T14:57:56;3.50;99.90
23411;DHT22;11878;51.774;7.220;2024-01-06T15:00:58;3.50;99.90
23411;DHT22;11878;51.774;7.220;2024-01-06T15:04:01;3.30;99.90
23411;DHT22;11878;51.774;7.220;2024-01-06T15:07:04;3.40;99.90
23411;DHT22;11878;51.774;7.220;2024-01-06T15:10:06;3.50;99.90
23411;DHT22;11878;51.774;7.220;2024-01-06T15:13:10;3.30;99.90
23411;DHT22;11878;51.774;7.220;2024-01-06T15:16:12;3.30;99.90
23411;DHT22;11878;51.774;7.220;2024-01-06T15:19:15;3.40;99.90
23411;DHT22;11878;51.774;7.220;2024-01-06T15:22:17;3.30;99.90
23411;DHT22;11878;51.774;7.220;2024-01-06T15:25:19;3.40;99.90
23411;DHT22;11878;51.774;7.220;2024-01-06T15:28:21;3.90;99.90
23411;DHT22;11878;51.774;7.220;2024-01-06T15:31:23;3.40;99.90
23411;DHT22;11878;51.774;7.220;2024-01-06T15:34:25;3.30;99.90
23411;DHT22;11878;51.774;7.220;2024-01-06T15:37:32;3.40;99.90
23411;DHT22;11878;51.774;7.220;2024-01-06T15:40:33;3.30;99.90
23411;DHT22;11878;51.774;7.220;2024-01-06T15:43:35;3.40;99.90
23411;DHT22;11878;51.774;7.220;2024-01-06T15:46:39;3.40;99.90
23411;DHT22;11878;51.774;7.220;2024-01-06T15:49:41;3.30;99.90
23411;DHT22;11878;51.774;7.220;2024-01-06T15:52:43;3.30;99.90
23411;DHT22;11878;51.774;7.220;2024-01-06T15:55:47;3.40;99.90
23411;DHT22;11878;51.774;7.220;2024-01-06T15:58:49;3.30;99.90
23411;DHT22;11878;51.774;7.220;2024-01-06T16:01:54;3.40;99.90
23411;DHT22;11878;51.774;7.220;2024-01-06T16:04:56;3.30;99.90
23411;DHT22;11878;51.774;7.220;2024-01-06T16:07:59;3.40;99.90
23411;DHT22;11878;51.774;7.220;2024-01-06T16:11:00;3.30;99.90
23411;DHT22;11878;51.774;7.220;2024-01-06T16:14:03;3.30;99.90
23411;DHT22;11878;51.774;7.220;2024-01-06T16:17:04;3.30;99.90
23411;DHT22;11878;51.774;7.220;2024-01-06T16:20:06;6.20;99.90
23411;DHT22;11878;51.774;7.220;2024-01-06T16:23:09;3.30;99.90
23411;DHT22;11878;51.774;7.220;2024-01-06T16:26:15;3.30;99.90
23411;DHT22;11878;51.774;7.220;2024-01-06T16:29:16;3.20;99.90
23411;DHT22;11878;51.774;7.220;2024-01-06T16:32:19;3.30;99.90
23411;DHT22;11878;51.774;7.220;2024-01-06T16:35:23;3.30;99.90
23411;DHT22;11878;51.774;7.220;2024-01-06T16:38:26;3.30;99.90
23411;DHT22;11878;51.774;7.220;2024-01-06T16:41:34;3.20;99.90
23411;DHT22;11878;51.774;7.220;2024-01-06T16:44:36;3.20;99.90
23411;DHT22;11878;51.774;7.220;2024-01-06T16:47:39;3.30;99.90
23411;DHT22;11878;51.774;7.220;2024-01-06T16:50:42;3.20;99.90
23411;DHT22;11878;51.774;7.220;2024-01-06T16:53:47;3.10;99.90
23411;DHT22;11878;51.774;7.220;2024-01-06T16:56:51;2.60;99.90
23411;DHT22;11878;51.774;7.220;2024-01-06T16:59:54;3.20;99.90
23411;DHT22;11878;51.774;7.220;2024-01-06T17:02:57;3.20;99.90
23411;DHT22;11878;51.774;7.220;2024-01-06T17:05:59;3.20;99.90
23411;DHT22;11878;51.774;7.220;2024-01-06T17:09:01;3.10;99.90
23411;DHT22;11878;51.774;7.220;2024-01-06T17:12:03;3.20;99.90
23411;DHT22;11878;51.774;7.220;2024-01-06T17:15:06;3.30;99.90
23411;DHT22;11878;51.774;7.220;2024-01-06T17:18:09;3.30;99.90
23411;DHT22;11878;51.774;7.220;2024-01-06T17:21:12;3.30;99.90
23411;DHT22;11878;51.774;7.220;2024-01-06T17:24:16;3.30;99.90
23411;DHT22;11878;51.774;7.220;2024-01-06T17:27:18;3.40;99.90
23411;DHT22;11878;51.774;7.220;2024-01-06T17:30:20;3.20;99.90
23411;DHT22;11878;51.774;7.220;2024-01-06T17:33:22;3.20;99.90
23411;DHT22;11878;51.774;7.220;2024-01-06T17:36:24;3.10;99.90
23411;DHT22;11878;51.774;7.220;2024-01-06T17:39:26;3.20;99.90
23411;DHT22;11878;51.774;7.220;2024-01-06T17:42:28;3.30;99.90
23411;DHT22;11878;51.774;7.220;2024-01-06T17:45:30;3.10;99.90
23411;DHT22;11878;51.774;7.220;2024-01-06T17:48:32;3.20;99.90
23411;DHT22;11878;51.774;7.220;2024-01-06T17:51:34;3.20;99.90
23411;DHT22;11878;51.774;7.220;2024-01-06T17:54:37;3.10;99.90
23411;DHT22;11878;51.774;7.220;2024-01-06T17:57:39;5.20;99.90
23411;DHT22;11878;51.774;7.220;2024-01-06T18:00:41;3.10;99.90
23411;DHT22;11878;51.774;7.220;2024-01-06T18:03:42;3.20;99.90
23411;DHT22;11878;51.774;7.220;2024-01-06T18:06:44;3.30;99.90
23411;DHT22;11878;51.774;7.220;2024-01-06T18:09:46;3.30;99.90
23411;DHT22;11878;51.774;7.220;2024-01-06T18:12:49;3.30;99.90
23411;DHT22;11878;51.774;7.220;2024-01-06T18:15:50;3.20;99.90
23411;DHT22;11878;51.774;7.220;2024-01-06T18:18:53;3.30;99.90
23411;DHT22;11878;51.774;7.220;2024-01-06T18:21:55;3.40;99.90
23411;DHT22;11878;51.774;7.220;2024-01-06T18:24:57;3.30;99.90
23411;DHT22;11878;51.774;7.220;2024-01-06T18:27:59;3.30;99.90
23411;DHT22;11878;51.774;7.220;2024-01-06T18:31:01;3.30;99.90
23411;DHT22;11878;51.774;7.220;2024-01-06T18:34:03;3.20;99.90
23411;DHT22;11878;51.774;7.220;2024-01-06T18:37:05;3.20;99.90
23411;DHT22;11878;51.774;7.220;2024-01-06T18:40:08;3.20;99.90
23411;DHT22;11878;51.774;7.220;2024-01-06T18:43:10;3.20;99.90
23411;DHT22;11878;51.774;7.220;2024-01-06T18:46:12;3.10;99.90
23411;DHT22;11878;51.774;7.220;2024-01-06T18:49:13;3.10;99.90
23411;DHT22;11878;51.774;7.220;2024-01-06T18:52:16;3.20;99.90
23411;DHT22;11878;51.774;7.220;2024-01-06T18:55:18;3.30;99.90
23411;DHT22;11878;51.774;7.220;2024-01-06T18:58:19;3.20;99.90
23411;DHT22;11878;51.774;7.220;2024-01-06T19:01:22;3.10;99.90
23411;DHT22;11878;51.774;7.220;2024-01-06T19:04:23;3.10;99.90
23411;DHT22;11878;51.774;7.220;2024-01-06T19:07:26;3.10;99.90
23411;DHT22;11878;51.774;7.220;2024-01-06T19:10:28;3.20;99.90
23411;DHT22;11878;51.774;7.220;2024-01-06T19:13:32;3.20;99.90
23411;DHT22;11878;51.774;7.220;2024-01-06T19:16:35;3.20;99.90
23411;DHT22;11878;51.774;7.220;2024-01-06T19:19:38;3.20;99.90
23411;DHT22;11878;51.774;7.220;2024-01-06T19:22:42;3.20;99.90
23411;DHT22;11878;51.774;7.220;2024-01-06T19:26:03;3.20;99.90
23411;DHT22;11878;51.774;7.220;2024-01-06T19:29:09;3.10;99.90
23411;DHT22;11878;51.774;7.220;2024-01-06T19:32:11;3.20;99.90
23411;DHT22;11878;51.774;7.220;2024-01-06T19:35:13;3.20;99.90